Map

Track Data

SID SEASON NUMBER BASIN SUBBASIN NAME ISO_TIME NATURE LAT LON WMO_WIND WMO_PRES WMO_AGENCY TRACK_TYPE DIST2LAND LANDFALL IFLAG USA_AGENCY USA_ATCF_ID USA_LAT USA_LON USA_RECORD USA_STATUS USA_WIND USA_PRES USA_SSHS USA_R34_NE USA_R34_SE USA_R34_SW USA_R34_NW USA_R50_NE USA_R50_SE USA_R50_SW USA_R50_NW USA_R64_NE USA_R64_SE USA_R64_SW USA_R64_NW USA_POCI USA_ROCI USA_RMW USA_EYE TOKYO_LAT TOKYO_LON TOKYO_GRADE TOKYO_WIND TOKYO_PRES TOKYO_R50_DIR TOKYO_R50_LONG TOKYO_R50_SHORT TOKYO_R30_DIR TOKYO_R30_LONG TOKYO_R30_SHORT TOKYO_LAND CMA_LAT CMA_LON CMA_CAT CMA_WIND CMA_PRES HKO_LAT HKO_LON HKO_CAT HKO_WIND HKO_PRES NEWDELHI_LAT NEWDELHI_LON NEWDELHI_GRADE NEWDELHI_WIND NEWDELHI_PRES NEWDELHI_CI NEWDELHI_DP NEWDELHI_POCI REUNION_LAT REUNION_LON REUNION_TYPE REUNION_WIND REUNION_PRES REUNION_TNUM REUNION_CI REUNION_RMW REUNION_R34_NE REUNION_R34_SE REUNION_R34_SW REUNION_R34_NW REUNION_R50_NE REUNION_R50_SE REUNION_R50_SW REUNION_R50_NW REUNION_R64_NE REUNION_R64_SE REUNION_R64_SW REUNION_R64_NW BOM_LAT BOM_LON BOM_TYPE BOM_WIND BOM_PRES BOM_TNUM BOM_CI BOM_RMW BOM_R34_NE BOM_R34_SE BOM_R34_SW BOM_R34_NW BOM_R50_NE BOM_R50_SE BOM_R50_SW BOM_R50_NW BOM_R64_NE BOM_R64_SE BOM_R64_SW BOM_R64_NW BOM_ROCI BOM_POCI BOM_EYE BOM_POS_METHOD BOM_PRES_METHOD NADI_LAT NADI_LON NADI_CAT NADI_WIND NADI_PRES WELLINGTON_LAT WELLINGTON_LON WELLINGTON_WIND WELLINGTON_PRES DS824_LAT DS824_LON DS824_STAGE DS824_WIND DS824_PRES TD9636_LAT TD9636_LON TD9636_STAGE TD9636_WIND TD9636_PRES TD9635_LAT TD9635_LON TD9635_WIND TD9635_PRES TD9635_ROCI NEUMANN_LAT NEUMANN_LON NEUMANN_CLASS NEUMANN_WIND NEUMANN_PRES MLC_LAT MLC_LON MLC_CLASS MLC_WIND MLC_PRES USA_GUST BOM_GUST BOM_GUST_PER REUNION_GUST REUNION_GUST_PER USA_SEAHGT USA_SEARAD_NE USA_SEARAD_SE USA_SEARAD_SW USA_SEARAD_NW STORM_SPEED STORM_DIR
1957294N11070 1957 73 NI AS NOT_NAMED 1957-10-20 18:00:00 TS 11.2000 70.1000 main 541 527 O________O____ jtwc_io IO051957 11.2000 70.1000 -1 11.2000 70.1000 TC 3 65
1957294N11070 1957 73 NI AS NOT_NAMED 1957-10-20 21:00:00 TS 11.2625 70.2400 main 527 507 P________P____ IO051957 11.2625 70.2400 -1 11.2625 70.2400 TC 3 71
1957294N11070 1957 73 NI AS NOT_NAMED 1957-10-21 00:00:00 TS 11.3000 70.4000 main 507 486 O________O____ jtwc_io IO051957 11.3000 70.4000 -1 11.3000 70.4000 TC 25 3 84
1957294N11070 1957 73 NI AS NOT_NAMED 1957-10-21 03:00:00 TS 11.3000 70.5934 main 486 466 P________PO___ IO051957 11.3000 70.5925 -1 11.3000 70.5925 TC 25 11.3000 70.6000 1 4 90
1957294N11070 1957 73 NI AS NOT_NAMED 1957-10-21 06:00:00 TS 11.3016 70.8013 main 466 446 O________OP___ jtwc_io IO051957 11.3000 70.8000 -1 11.3000 70.8000 TC 25 11.3079 70.8063 1 4 85
1957294N11070 1957 73 NI AS NOT_NAMED 1957-10-21 09:00:00 TS 11.3371 71.0027 main 446 421 P________PP___ IO051957 11.3425 71.0000 -1 11.3425 71.0000 TC 25 11.3226 71.0101 1 4 78
1957294N11070 1957 73 NI AS NOT_NAMED 1957-10-21 12:00:00 TS 11.3837 71.2029 main 421 401 O________OP___ jtwc_io IO051957 11.4000 71.2000 -1 11.4000 71.2000 TC 25 11.3510 71.2088 1 4 77
1957294N11070 1957 73 NI AS NOT_NAMED 1957-10-21 15:00:00 TS 11.4283 71.4050 main 401 377 P________PO___ IO051957 11.4425 71.4075 -1 11.4425 71.4075 TC 25 11.4000 71.4000 1 4 74
1957294N11070 1957 73 NI AS NOT_NAMED 1957-10-21 18:00:00 TS 11.4915 71.5935 main 377 362 O________OP___ jtwc_io IO051957 11.5000 71.6000 -1 11.5000 71.6000 TC 25 11.4744 71.5806 1 4 66
1957294N11070 1957 73 NI AS NOT_NAMED 1957-10-21 21:00:00 TS 11.5850 71.7583 main 352 338 P________PP___ IO051957 11.5925 71.7650 -1 11.5925 71.7650 TC 25 11.5700 71.7449 1 4 56
1957294N11070 1957 73 NI AS NOT_NAMED 1957-10-22 00:00:00 TS 11.6935 71.8956 main 338 324 O________OP___ jtwc_io IO051957 11.7000 71.9000 -1 11.7000 71.9000 TC 25 11.6806 71.8868 1 3 50
1957294N11070 1957 73 NI AS NOT_NAMED 1957-10-22 03:00:00 TS 11.7950 72.0100 main 324 310 P________PO___ IO051957 11.7925 72.0150 -1 11.7925 72.0150 TC 25 11.8000 72.0000 1 3 43
1957294N11070 1957 73 NI AS NOT_NAMED 1957-10-22 06:00:00 TS 11.9046 72.0970 main 310 296 O________OP___ jtwc_io IO051957 11.9000 72.1000 -1 11.9000 72.1000 TC 25 11.9137 72.0910 1 3 31
1957294N11070 1957 73 NI AS NOT_NAMED 1957-10-22 09:00:00 TS 12.0450 72.1608 main 296 290 P________PP___ IO051957 12.0500 72.1650 -1 12.0500 72.1650 TC 25 12.0350 72.1525 1 3 18
1957294N11070 1957 73 NI AS NOT_NAMED 1957-10-22 12:00:00 TS 12.1879 72.1959 main 290 287 O________OP___ jtwc_io IO051957 12.2000 72.2000 -1 12.2000 72.2000 TC 25 12.1637 72.1878 1 3 11
1957294N11070 1957 73 NI AS NOT_NAMED 1957-10-22 15:00:00 TS 12.3000 72.2050 main 287 285 P________PO___ IO051957 12.3000 72.2075 -1 12.3000 72.2075 TC 25 12.3000 72.2000 1 2 2
1957294N11070 1957 73 NI AS NOT_NAMED 1957-10-22 18:00:00 TS 12.4115 72.2069 main 285 284 O________OP___ jtwc_io IO051957 12.4000 72.2000 -1 12.4000 72.2000 TC 25 12.4346 72.2208 1 3 5
1957294N11070 1957 73 NI AS NOT_NAMED 1957-10-22 21:00:00 TS 12.5491 72.2207 main 284 279 P________PP___ IO051957 12.5350 72.2224 -1 12.5350 72.2224 TC 25 12.5774 72.2173 1 3 0
1957294N11070 1957 73 NI AS NOT_NAMED 1957-10-23 00:00:00 TS 12.7105 72.1934 main 279 276 O________OP___ jtwc_io IO051957 12.7000 72.2000 -1 12.7000 72.2000 TC 25 12.7315 72.1802 1 4 339
1957294N11070 1957 73 NI AS NOT_NAMED 1957-10-23 03:00:00 TS 12.8950 72.0817 main 285 285 P________PO___ IO051957 12.8925 72.0725 -1 12.8925 72.0725 TC 25 12.9000 72.1000 1 5 326
1957294N11070 1957 73 NI AS NOT_NAMED 1957-10-23 06:00:00 TS 13.0939 71.9227 main 301 296 O________OP___ jtwc_io IO051957 13.1000 71.9000 -1 13.1000 71.9000 TC 25 13.0816 71.9682 1 5 323
1957294N11070 1957 73 NI AS NOT_NAMED 1957-10-23 09:00:00 TS 13.2925 71.7700 main 299 299 P________PP___ IO051957 13.3000 71.7575 -1 13.3000 71.7575 TC 25 13.2776 71.7951 1 5 322
1957294N11070 1957 73 NI AS NOT_NAMED 1957-10-23 12:00:00 TS 13.4949 71.5998 main 305 305 O________OP___ jtwc_io IO051957 13.5000 71.6000 -1 13.5000 71.6000 TC 25 13.4847 71.5994 1 5 318
1957294N11070 1957 73 NI AS NOT_NAMED 1957-10-23 15:00:00 TS 13.6950 71.4000 main 311 311 P________PO___ IO051957 13.6925 71.4000 -1 13.6925 71.4000 TC 25 13.7000 71.4000 1 6 317
1957294N11070 1957 73 NI AS NOT_NAMED 1957-10-23 18:00:00 TS 13.9100 71.2043 main 320 315 O________OP___ jtwc_io IO051957 13.9000 71.2000 -1 13.9000 71.2000 TC 25 13.9300 71.2129 1 6 323
1957294N11070 1957 73 NI AS NOT_NAMED 1957-10-23 21:00:00 TS 14.1550 71.0375 main 327 324 P________PP___ IO051957 14.1500 71.0425 -1 14.1500 71.0425 TC 25 14.1650 71.0276 1 6 328
1957294N11070 1957 73 NI AS NOT_NAMED 1957-10-24 00:00:00 TS 14.3975 70.8845 main 329 329 O________OP___ jtwc_io IO051957 14.4000 70.9000 -1 14.4000 70.9000 TC 25 14.3925 70.8535 1 5 327
1957294N11070 1957 73 NI AS NOT_NAMED 1957-10-24 03:00:00 TS 14.6100 70.7283 main 341 337 P________PO___ IO051957 14.6150 70.7425 -1 14.6150 70.7425 TC 25 14.6000 70.7000 1 5 324
1957294N11070 1957 73 NI AS NOT_NAMED 1957-10-24 06:00:00 TS 14.7918 70.5928 main 343 343 O________OP___ jtwc_io IO051957 14.8000 70.6000 -1 14.8000 70.6000 TC 25 14.7755 70.5783 1 4 326
1957294N11070 1957 73 NI AS NOT_NAMED 1957-10-24 09:00:00 TS 14.9533 70.4874 main 343 343 P________PP___ IO051957 14.9650 70.4925 -1 14.9650 70.4925 TC 25 14.9299 70.4773 1 4 327
1957294N11070 1957 73 NI AS NOT_NAMED 1957-10-24 12:00:00 TS 15.0898 70.3959 main 347 347 O________OP___ jtwc_io IO051957 15.1000 70.4000 -1 15.1000 70.4000 TC 25 15.0693 70.3877 1 3 324
1957294N11070 1957 73 NI AS NOT_NAMED 1957-10-24 15:00:00 TS 15.2000 70.3000 main 352 347 P________PO___ IO051957 15.2000 70.3000 -1 15.2000 70.3000 TC 25 15.2000 70.3000 1 3 320
1957294N11070 1957 73 NI AS NOT_NAMED 1957-10-24 18:00:00 TS 15.3109 70.2027 main 357 353 O________OP___ jtwc_io IO051957 15.3000 70.2000 -1 15.3000 70.2000 TC 25 15.3272 70.2067 1 3 322
1957294N11070 1957 73 NI AS NOT_NAMED 1957-10-24 21:00:00 TS 15.4440 70.1033 main 363 359 P________PP___ IO051957 15.4375 70.1000 -1 15.4375 70.1000 TC 25 15.4526 70.1077 1 3 325
1957294N11070 1957 73 NI AS NOT_NAMED 1957-10-25 00:00:00 TS 15.5883 70.0024 main 366 366 O________OP___ jtwc_io IO051957 15.6000 70.0000 -1 15.6000 70.0000 TC 25 15.5766 70.0048 1 3 322
1957294N11070 1957 73 NI AS NOT_NAMED 1957-10-25 03:00:00 NR 15.7000 69.9000 main 374 __________O___ IO051957 -1 TC 15.7000 69.9000 1 3 319

About IBTrACS Database

This database is a web-friendly format of International Best Track Archive for Climate Stewardship (IBTrACS), a global best track data archive curated by NOAA dating back to 1842.

Updated: 2021-12-06